Time;durP1;ratioP1;P1;durP2;ratioP2;P2;SDS_P1;SDS_P2;PMS_P1;PMS_P2;Temp;Humidity;BMP_temperature;BMP_pressure;BME280_temperature;BME280_humidity;BME280_pressure;Samples;Min_cycle;Max_cycle;Signal;HPM_P1;HPM_P2
2022/01/06 00:01:54;;;;;;;9.30;3.37;;;2.40;99.90;;;;;;5030799;28;20187;-43
2022/01/06 00:04:20;;;;;;;10.23;3.87;;;2.40;99.90;;;;;;5032075;28;20205;-44
2022/01/06 00:06:46;;;;;;;9.70;3.50;;;2.40;99.90;;;;;;5031240;28;20187;-44
2022/01/06 00:09:15;;;;;;;12.90;4.43;;;2.40;99.90;;;;;;5014251;28;20236;-43
2022/01/06 00:11:41;;;;;;;15.37;5.50;;;2.40;99.90;;;;;;5031065;28;20202;-44
2022/01/06 00:24:49;;;;;;;8.77;3.37;;;2.50;99.90;;;;;;5032019;28;20217;-42
2022/01/06 00:27:15;;;;;;;8.63;3.60;;;2.50;99.90;;;;;;5014459;28;20171;-43
2022/01/06 00:29:42;;;;;;;10.13;4.10;;;2.50;99.90;;;;;;5030687;28;20317;-44
2022/01/06 00:32:09;;;;;;;15.57;4.90;;;2.50;99.90;;;;;;5013459;28;20264;-43
2022/01/06 00:34:35;;;;;;;10.30;3.00;;;2.40;99.90;;;;;;5014402;28;20282;-43
2022/01/06 00:37:02;;;;;;;6.43;2.97;;;2.40;99.90;;;;;;5014271;28;20250;-44
2022/01/06 00:39:29;;;;;;;6.17;2.70;;;2.40;99.90;;;;;;5013828;28;20182;-43
2022/01/06 00:41:57;;;;;;;7.43;2.83;;;2.40;99.90;;;;;;5030439;28;20178;-44
2022/01/06 00:44:23;;;;;;;6.60;2.43;;;2.40;99.90;;;;;;5030377;28;20624;-44
2022/01/06 00:46:52;;;;;;;5.50;2.10;;;2.50;99.90;;;;;;5030522;28;20202;-43
2022/01/06 00:49:18;;;;;;;4.77;2.77;;;2.50;99.90;;;;;;5013892;28;20175;-43
2022/01/06 00:51:44;;;;;;;8.03;2.30;;;2.50;99.90;;;;;;5030380;28;20174;-44
2022/01/06 00:54:10;;;;;;;9.47;2.30;;;2.50;99.90;;;;;;5014119;28;20268;-43
2022/01/06 00:56:36;;;;;;;5.53;2.03;;;2.50;99.90;;;;;;5013953;28;20186;-44
2022/01/06 00:59:02;;;;;;;9.10;2.37;;;2.50;99.90;;;;;;5029534;28;20186;-44
2022/01/06 01:01:27;;;;;;;6.77;3.23;;;2.50;99.90;;;;;;5030254;28;20174;-42
2022/01/06 01:03:54;;;;;;;7.27;3.93;;;2.50;99.90;;;;;;5013742;28;20210;-43
2022/01/06 01:06:20;;;;;;;6.87;2.73;;;2.50;99.90;;;;;;5030196;28;20182;-42
2022/01/06 01:08:46;;;;;;;8.33;2.80;;;2.60;99.90;;;;;;5029900;28;20187;-44
2022/01/06 01:11:11;;;;;;;6.97;2.60;;;2.60;99.90;;;;;;5013850;28;20187;-43
2022/01/06 01:13:54;;;;;;;7.73;2.60;;;2.60;99.90;;;;;;5031657;28;20206;-43
2022/01/06 01:16:27;;;;;;;4.27;1.90;;;2.60;99.90;;;;;;5031456;28;20171;-44
2022/01/06 01:18:56;;;;;;;4.43;2.00;;;2.60;99.90;;;;;;5031270;28;20167;-43
2022/01/06 01:21:26;;;;;;;4.47;2.27;;;2.60;99.90;;;;;;5031208;28;20254;-44
2022/01/06 01:26:24;;;;;;;9.17;2.60;;;2.60;99.90;;;;;;5064948;28;20208;-33
2022/01/06 01:28:51;;;;;;;6.23;2.57;;;2.60;99.90;;;;;;5035559;28;20231;-31
2022/01/06 01:33:46;;;;;;;5.70;1.93;;;2.60;99.90;;;;;;5053053;28;20212;-31
2022/01/06 01:36:12;;;;;;;5.50;2.03;;;2.50;99.90;;;;;;5033091;28;20225;-35
2022/01/06 01:38:39;;;;;;;3.27;1.90;;;2.60;99.90;;;;;;5032304;28;20182;-32
2022/01/06 01:41:06;;;;;;;6.47;2.07;;;2.60;99.90;;;;;;5050062;28;20185;-31
2022/01/06 01:43:32;;;;;;;3.60;1.90;;;2.60;99.90;;;;;;5032923;28;20216;-31
2022/01/06 01:46:08;;;;;;;5.33;2.27;;;2.60;99.90;;;;;;5016446;28;20247;-31
2022/01/06 01:48:36;;;;;;;4.23;2.17;;;2.60;99.90;;;;;;5049505;28;20185;-31
2022/01/06 01:51:02;;;;;;;7.53;1.83;;;2.60;99.90;;;;;;5049617;28;20220;-31
2022/01/06 01:53:28;;;;;;;4.23;1.97;;;2.60;99.90;;;;;;5032537;28;20292;-31
2022/01/06 01:55:54;;;;;;;6.00;2.20;;;2.60;99.90;;;;;;5033230;28;20205;-31
2022/01/06 01:58:21;;;;;;;4.50;1.70;;;2.60;99.90;;;;;;5049322;28;20660;-36
2022/01/06 02:00:47;;;;;;;6.40;1.87;;;2.60;99.90;;;;;;5032674;28;20190;-32
2022/01/06 02:03:13;;;;;;;4.23;1.93;;;2.60;99.90;;;;;;5051176;28;20185;-32
2022/01/06 02:05:39;;;;;;;4.23;1.90;;;2.60;99.90;;;;;;5032904;28;20206;-34
2022/01/06 02:08:05;;;;;;;4.27;1.90;;;2.60;99.90;;;;;;5016174;28;20225;-30
2022/01/06 02:10:32;;;;;;;2.30;1.70;;;2.50;99.90;;;;;;5033287;28;20170;-31
2022/01/06 02:13:00;;;;;;;2.83;1.63;;;2.50;99.90;;;;;;5036736;28;20240;-31
2022/01/06 02:15:27;;;;;;;4.60;2.00;;;2.60;99.90;;;;;;5036510;28;20194;-33
2022/01/06 02:17:53;;;;;;;4.43;2.00;;;2.60;99.90;;;;;;5036215;28;20178;-32
2022/01/06 02:20:22;;;;;;;2.90;1.53;;;2.60;99.90;;;;;;5036435;28;20170;-31
2022/01/06 02:22:49;;;;;;;5.40;2.07;;;2.60;99.90;;;;;;5036465;28;20182;-32
2022/01/06 02:25:20;;;;;;;5.87;2.60;;;2.50;99.90;;;;;;5036337;28;20682;-32
2022/01/06 02:27:48;;;;;;;6.37;3.30;;;2.50;99.90;;;;;;5054143;28;20220;-32
2022/01/06 02:30:15;;;;;;;5.23;2.70;;;2.60;99.90;;;;;;5052629;28;20193;-32
2022/01/06 02:32:41;;;;;;;6.60;2.30;;;2.60;99.90;;;;;;5036268;28;20300;-31
2022/01/06 02:35:18;;;;;;;6.03;2.50;;;2.60;99.90;;;;;;5036058;28;20194;-33
2022/01/06 02:37:46;;;;;;;6.00;2.50;;;2.50;99.90;;;;;;5036284;28;20174;-34
2022/01/06 02:40:17;;;;;;;5.80;1.97;;;2.50;99.90;;;;;;5036105;28;20174;-33
2022/01/06 02:42:45;;;;;;;7.63;2.37;;;2.50;99.90;;;;;;5035802;28;20212;-34
2022/01/06 02:45:12;;;;;;;6.80;2.03;;;2.60;99.90;;;;;;5019552;28;20292;-32
2022/01/06 02:47:39;;;;;;;4.33;1.90;;;2.60;99.90;;;;;;5052135;28;20198;-34
2022/01/06 02:50:06;;;;;;;7.20;2.10;;;2.60;99.90;;;;;;5035881;28;20260;-34
2022/01/06 02:52:32;;;;;;;4.43;2.10;;;2.60;99.90;;;;;;5053473;28;20208;-34
2022/01/06 02:54:58;;;;;;;2.70;1.80;;;2.60;99.90;;;;;;5052134;28;20201;-33
2022/01/06 02:57:24;;;;;;;5.13;1.90;;;2.60;99.90;;;;;;5035807;28;20178;-33
2022/01/06 02:59:50;;;;;;;3.97;2.43;;;2.60;99.90;;;;;;5035393;28;20264;-34
2022/01/06 03:02:16;;;;;;;6.80;2.33;;;2.60;99.90;;;;;;5035791;28;20289;-32
2022/01/06 03:04:42;;;;;;;4.73;2.10;;;2.60;99.90;;;;;;5053489;28;20259;-32
2022/01/06 03:07:08;;;;;;;5.27;2.33;;;2.60;99.90;;;;;;5052259;28;20196;-33
2022/01/06 03:09:40;;;;;;;3.57;1.83;;;2.60;99.90;;;;;;5035093;28;20190;-34
2022/01/06 03:12:39;;;;;;;5.93;2.10;;;2.60;99.90;;;;;;5035546;28;20281;-33
2022/01/06 03:14:57;;;;;;;5.60;2.00;;;2.60;99.90;;;;;;5034862;28;20202;-33
2022/01/06 03:17:23;;;;;;;3.80;1.97;;;2.70;99.90;;;;;;5035582;28;20181;-32
2022/01/06 03:19:48;;;;;;;5.90;2.30;;;2.70;99.90;;;;;;5018697;28;20181;-32
2022/01/06 03:22:14;;;;;;;6.17;2.30;;;2.70;99.90;;;;;;5051475;28;20196;-32
2022/01/06 03:24:40;;;;;;;4.03;1.90;;;2.70;99.90;;;;;;5051295;28;20228;-34
2022/01/06 03:27:06;;;;;;;3.70;2.17;;;2.60;99.90;;;;;;5034966;28;20181;-35
2022/01/06 03:29:32;;;;;;;5.90;2.67;;;2.70;99.90;;;;;;5034882;28;20640;-34
2022/01/06 03:31:59;;;;;;;4.37;2.60;;;2.70;99.90;;;;;;5035017;28;20185;-33
2022/01/06 03:34:26;;;;;;;3.60;2.10;;;2.70;99.90;;;;;;5035203;28;20205;-34
2022/01/06 03:36:52;;;;;;;2.83;1.90;;;2.70;99.90;;;;;;5051624;28;20332;-33
2022/01/06 03:39:18;;;;;;;3.47;1.90;;;2.70;99.90;;;;;;5034725;28;20189;-36
2022/01/06 03:41:44;;;;;;;3.43;2.10;;;2.70;99.90;;;;;;5034776;28;20174;-36
2022/01/06 03:44:10;;;;;;;5.17;2.27;;;2.70;99.90;;;;;;5051625;28;20182;-35
2022/01/06 03:46:35;;;;;;;4.17;1.50;;;2.80;99.90;;;;;;5034905;28;20701;-35
2022/01/06 03:49:01;;;;;;;6.17;2.13;;;2.80;99.90;;;;;;5034469;28;20192;-35
2022/01/06 03:51:27;;;;;;;2.30;1.70;;;2.80;99.90;;;;;;5034604;28;20186;-35
2022/01/06 03:53:53;;;;;;;2.97;1.60;;;2.80;99.90;;;;;;5018194;28;20263;-36
2022/01/06 03:56:19;;;;;;;2.70;1.30;;;2.70;99.90;;;;;;5034476;28;20198;-34
2022/01/06 03:58:44;;;;;;;2.27;1.37;;;2.70;99.90;;;;;;5034507;28;20177;-35
2022/01/06 04:01:11;;;;;;;2.37;1.40;;;2.70;99.90;;;;;;5034506;28;20192;-35
2022/01/06 04:03:37;;;;;;;2.00;1.27;;;2.70;99.90;;;;;;5035001;28;20228;-36
2022/01/06 04:06:04;;;;;;;3.20;1.57;;;2.70;99.90;;;;;;5034317;28;20202;-34
2022/01/06 04:08:30;;;;;;;2.03;1.30;;;2.70;99.90;;;;;;5034343;28;20204;-34
2022/01/06 04:10:56;;;;;;;1.47;1.30;;;2.70;99.90;;;;;;5050939;28;20185;-34
2022/01/06 04:13:22;;;;;;;1.33;1.03;;;2.70;99.90;;;;;;5017664;28;20202;-34
2022/01/06 04:15:48;;;;;;;1.87;1.40;;;2.70;99.90;;;;;;5034238;28;20263;-35
2022/01/06 04:18:14;;;;;;;2.37;1.30;;;2.70;99.90;;;;;;5050461;28;20181;-35
2022/01/06 04:20:39;;;;;;;1.40;1.30;;;2.70;99.90;;;;;;5017686;28;20212;-34
2022/01/06 04:23:05;;;;;;;2.23;1.23;;;2.60;99.90;;;;;;5050770;28;20185;-34
2022/01/06 04:25:31;;;;;;;1.73;1.47;;;2.50;99.90;;;;;;5033835;28;20217;-35
2022/01/06 04:27:57;;;;;;;2.60;1.47;;;2.50;99.90;;;;;;5033869;28;20208;-34
2022/01/06 04:30:22;;;;;;;2.23;1.20;;;2.50;99.90;;;;;;5034263;28;20186;-34
2022/01/06 04:32:48;;;;;;;2.00;1.60;;;2.50;99.90;;;;;;5051743;28;20216;-34
2022/01/06 04:35:14;;;;;;;1.43;1.30;;;2.50;99.90;;;;;;5050018;28;20205;-35
2022/01/06 04:37:40;;;;;;;3.07;1.40;;;2.50;99.90;;;;;;5033828;28;20228;-34
2022/01/06 04:40:07;;;;;;;1.87;1.47;;;2.50;99.90;;;;;;5050316;28;20182;-35
2022/01/06 04:42:34;;;;;;;2.47;1.40;;;2.50;99.90;;;;;;5033771;28;20243;-34
2022/01/06 04:45:00;;;;;;;1.93;1.40;;;2.50;99.90;;;;;;5033694;28;20720;-35
2022/01/06 04:47:26;;;;;;;1.53;1.43;;;2.40;99.90;;;;;;5016902;28;20251;-34
2022/01/06 04:49:52;;;;;;;2.37;1.60;;;2.40;99.90;;;;;;5033621;28;20272;-35
2022/01/06 04:52:18;;;;;;;2.47;1.33;;;2.40;99.90;;;;;;5051422;28;20277;-34
2022/01/06 04:54:44;;;;;;;2.37;1.50;;;2.40;99.90;;;;;;5033507;28;20202;-34
2022/01/06 04:57:10;;;;;;;2.20;1.40;;;2.30;99.90;;;;;;5033897;28;20260;-35
2022/01/06 04:59:36;;;;;;;1.80;1.40;;;2.30;99.90;;;;;;5033461;28;20192;-35
2022/01/06 05:02:03;;;;;;;2.50;1.60;;;2.20;99.90;;;;;;5050185;28;20225;-35
2022/01/06 05:04:28;;;;;;;2.27;1.27;;;2.20;99.90;;;;;;5033527;28;20623;-34
2022/01/06 05:06:54;;;;;;;3.10;1.30;;;2.20;99.90;;;;;;5033428;28;20676;-34
2022/01/06 05:09:20;;;;;;;1.77;1.43;;;2.10;99.90;;;;;;5033195;28;20174;-35
2022/01/06 05:11:46;;;;;;;1.93;1.30;;;2.10;99.90;;;;;;5033129;28;20610;-35
2022/01/06 05:14:12;;;;;;;1.67;1.50;;;2.10;99.90;;;;;;5033216;28;20210;-35
2022/01/06 05:16:37;;;;;;;2.73;1.40;;;2.10;99.90;;;;;;5033174;28;20257;-34
2022/01/06 05:19:03;;;;;;;1.63;1.43;;;2.10;99.90;;;;;;5050816;28;20293;-34
2022/01/06 05:21:31;;;;;;;1.90;1.23;;;2.20;99.90;;;;;;5033269;28;20214;-35
2022/01/06 05:23:57;;;;;;;1.60;1.50;;;2.20;99.90;;;;;;5032819;28;20182;-34
2022/01/06 05:26:23;;;;;;;2.17;1.43;;;2.10;99.90;;;;;;5033169;28;20201;-35
2022/01/06 05:28:49;;;;;;;1.93;1.50;;;2.20;99.90;;;;;;5032762;28;20260;-34
2022/01/06 05:31:15;;;;;;;2.40;1.70;;;2.20;99.90;;;;;;5016801;28;20205;-36
2022/01/06 05:33:41;;;;;;;1.50;1.40;;;2.20;99.90;;;;;;5033021;28;20206;-34
2022/01/06 05:36:07;;;;;;;1.77;1.53;;;2.20;99.90;;;;;;5049534;28;20197;-34
2022/01/06 05:38:33;;;;;;;3.10;1.73;;;2.20;99.90;;;;;;5032517;28;20186;-34
2022/01/06 05:40:59;;;;;;;3.30;1.90;;;2.20;99.90;;;;;;5033282;28;20185;-35
2022/01/06 05:43:26;;;;;;;1.63;1.50;;;2.20;99.90;;;;;;5033056;28;20209;-34
2022/01/06 05:45:55;;;;;;;2.60;1.77;;;2.20;99.90;;;;;;5035570;28;20201;-34
2022/01/06 05:48:21;;;;;;;1.60;1.50;;;2.20;99.90;;;;;;5054464;28;20185;-34
2022/01/06 05:50:48;;;;;;;1.90;1.70;;;2.20;99.90;;;;;;5053272;28;20220;-35
2022/01/06 05:53:19;;;;;;;4.10;1.83;;;2.20;99.90;;;;;;5036954;28;20236;-35
2022/01/06 05:55:45;;;;;;;2.63;2.03;;;2.20;99.90;;;;;;5036746;28;20216;-35
2022/01/06 05:58:11;;;;;;;8.57;4.77;;;2.20;99.90;;;;;;5036684;28;20253;-34
2022/01/06 06:00:36;;;;;;;3.30;1.63;;;2.20;99.90;;;;;;5036710;28;20261;-35
2022/01/06 06:03:02;;;;;;;2.83;2.43;;;2.20;99.90;;;;;;5036965;28;20523;-34
2022/01/06 06:05:28;;;;;;;4.43;2.83;;;2.20;99.90;;;;;;5036301;28;20202;-34
2022/01/06 06:07:54;;;;;;;3.10;2.60;;;2.20;99.90;;;;;;5036608;28;20173;-34
2022/01/06 06:10:20;;;;;;;5.27;2.80;;;2.10;99.90;;;;;;5020176;28;20269;-36
2022/01/06 06:12:48;;;;;;;2.70;2.50;;;2.20;99.90;;;;;;5053082;28;20209;-34
2022/01/06 06:15:14;;;;;;;4.57;4.10;;;2.20;99.90;;;;;;5052926;28;20198;-34
2022/01/06 06:17:40;;;;;;;4.20;3.67;;;2.20;99.90;;;;;;5036239;28;20182;-34
2022/01/06 06:20:06;;;;;;;3.57;3.10;;;2.20;99.90;;;;;;5035812;28;20256;-34
2022/01/06 06:22:32;;;;;;;2.90;2.47;;;2.20;99.90;;;;;;5036180;28;20547;-34
2022/01/06 06:24:58;;;;;;;2.97;2.03;;;2.20;99.90;;;;;;5035980;28;20213;-34
2022/01/06 06:27:24;;;;;;;3.03;2.30;;;2.20;99.90;;;;;;5052691;28;20190;-36
2022/01/06 06:29:49;;;;;;;2.80;2.10;;;2.10;99.90;;;;;;5035822;28;20189;-35
2022/01/06 06:32:15;;;;;;;2.20;1.90;;;2.20;99.90;;;;;;5036030;28;20186;-34
2022/01/06 06:34:41;;;;;;;3.00;2.20;;;2.20;99.90;;;;;;5035817;28;20206;-34
2022/01/06 06:37:07;;;;;;;3.40;2.07;;;2.20;99.90;;;;;;5035942;28;20280;-34
2022/01/06 06:39:33;;;;;;;4.87;3.20;;;2.20;99.90;;;;;;5052410;28;20178;-34
2022/01/06 06:41:58;;;;;;;3.77;3.10;;;2.20;99.90;;;;;;5052438;28;20212;-34
2022/01/06 06:44:24;;;;;;;4.27;3.10;;;2.20;99.90;;;;;;5036035;28;20193;-34
2022/01/06 06:46:51;;;;;;;3.43;2.60;;;2.30;99.90;;;;;;5036153;28;20174;-34
2022/01/06 06:49:17;;;;;;;2.77;2.30;;;2.30;99.90;;;;;;5052083;28;20228;-35
2022/01/06 06:51:43;;;;;;;2.60;2.40;;;2.30;99.90;;;;;;5053628;28;20174;-34
2022/01/06 06:54:09;;;;;;;2.90;2.50;;;2.30;99.90;;;;;;5052487;28;20210;-34
2022/01/06 06:56:35;;;;;;;3.33;2.73;;;2.30;99.90;;;;;;5034859;28;20190;-35
2022/01/06 06:59:01;;;;;;;2.77;2.30;;;2.20;99.90;;;;;;5035786;28;20178;-34
2022/01/06 07:01:26;;;;;;;4.73;3.90;;;2.30;99.90;;;;;;5019393;28;20288;-34
2022/01/06 07:03:52;;;;;;;10.47;6.37;;;2.30;99.90;;;;;;5053460;28;20177;-36
2022/01/06 07:06:18;;;;;;;4.60;3.23;;;2.30;99.90;;;;;;5053489;28;20202;-34
2022/01/06 07:08:44;;;;;;;2.87;2.00;;;2.20;99.90;;;;;;5018910;28;20182;-34
2022/01/06 07:11:10;;;;;;;3.13;2.60;;;2.20;99.90;;;;;;5035213;28;20185;-34
2022/01/06 07:13:35;;;;;;;15.57;8.80;;;2.30;99.90;;;;;;5051907;28;20228;-35
2022/01/06 07:16:01;;;;;;;38.30;17.17;;;2.30;99.90;;;;;;5035370;28;20229;-35
2022/01/06 07:18:27;;;;;;;22.33;10.97;;;2.30;99.90;;;;;;5034650;28;20178;-34
2022/01/06 07:20:53;;;;;;;26.23;14.37;;;2.30;99.90;;;;;;5035257;28;20194;-34
2022/01/06 07:23:19;;;;;;;19.90;11.03;;;2.30;99.90;;;;;;5035281;28;20293;-34
2022/01/06 07:25:44;;;;;;;9.03;5.83;;;2.30;99.90;;;;;;5103221;22;20232;-32
2022/01/06 07:28:10;;;;;;;6.13;3.37;;;2.30;99.90;;;;;;5057182;28;20222;-32
2022/01/06 07:30:36;;;;;;;2.97;2.50;;;2.30;99.90;;;;;;5075365;28;20181;-32
2022/01/06 07:33:03;;;;;;;3.27;2.80;;;2.30;99.90;;;;;;5057906;28;20232;-32
2022/01/06 07:35:28;;;;;;;4.03;3.47;;;2.30;99.90;;;;;;5069104;28;20200;-31
2022/01/06 07:37:54;;;;;;;5.03;4.33;;;2.30;99.90;;;;;;5078058;28;20391;-32
2022/01/06 07:40:21;;;;;;;4.13;3.50;;;2.40;99.90;;;;;;5094890;28;20176;-32
2022/01/06 07:42:48;;;;;;;6.53;4.63;;;2.40;99.90;;;;;;5095070;28;20172;-32
2022/01/06 07:45:15;;;;;;;5.90;4.47;;;2.40;99.90;;;;;;5095006;28;20249;-31
2022/01/06 07:47:55;;;;;;;5.73;4.33;;;2.40;99.90;;;;;;5094365;28;20182;-32
2022/01/06 07:50:28;;;;;;;4.93;4.10;;;2.40;99.90;;;;;;5077882;28;20214;-30
2022/01/06 07:52:55;;;;;;;5.17;4.50;;;2.40;99.90;;;;;;5094472;28;20200;-30
2022/01/06 07:55:20;;;;;;;7.23;5.60;;;2.40;99.90;;;;;;5078073;28;20231;-31
2022/01/06 07:57:46;;;;;;;4.23;3.83;;;2.40;99.90;;;;;;5094428;28;20248;-31
2022/01/06 08:00:13;;;;;;;3.10;2.67;;;2.40;99.90;;;;;;5077418;28;20627;-31
2022/01/06 08:02:39;;;;;;;3.73;3.27;;;2.40;99.90;;;;;;5077552;28;20183;-31
2022/01/06 08:05:09;;;;;;;4.90;3.60;;;2.50;99.90;;;;;;5094781;28;20233;-34
2022/01/06 08:07:35;;;;;;;4.07;2.60;;;2.50;99.90;;;;;;5094403;28;20660;-36
2022/01/06 08:10:05;;;;;;;4.53;2.57;;;2.50;99.90;;;;;;5076883;28;20187;-33
2022/01/06 08:12:31;;;;;;;3.53;2.70;;;2.50;99.90;;;;;;5094040;28;20208;-34
2022/01/06 08:14:57;;;;;;;3.00;2.17;;;2.50;99.90;;;;;;5077530;28;20252;-34
2022/01/06 08:17:23;;;;;;;2.50;2.20;;;2.50;99.90;;;;;;5112532;28;20199;-33
2022/01/06 08:19:48;;;;;;;4.07;3.60;;;2.50;99.90;;;;;;5094236;28;20168;-33
2022/01/06 08:22:14;;;;;;;5.27;3.57;;;2.50;99.90;;;;;;5094314;28;20176;-31
2022/01/06 08:24:40;;;;;;;9.20;6.60;;;2.50;99.90;;;;;;5094289;28;20233;-30
2022/01/06 08:27:08;;;;;;;5.90;3.80;;;2.50;99.90;;;;;;5093940;28;20172;-32
2022/01/06 08:29:43;;;;;;;5.13;3.67;;;2.50;99.90;;;;;;5094279;28;20210;-31
2022/01/06 08:32:09;;;;;;;7.13;4.43;;;2.50;99.90;;;;;;5112579;28;20175;-30
2022/01/06 08:34:35;;;;;;;10.97;6.30;;;2.50;99.90;;;;;;5094077;28;20192;-30
2022/01/06 08:37:01;;;;;;;8.30;5.30;;;2.50;99.90;;;;;;5094463;28;20168;-31
2022/01/06 08:39:27;;;;;;;3.30;2.70;;;2.50;99.90;;;;;;5093778;28;20172;-31
2022/01/06 08:41:56;;;;;;;3.37;2.57;;;2.60;99.90;;;;;;5093683;28;20180;-32
2022/01/06 08:44:22;;;;;;;4.53;3.13;;;2.60;99.90;;;;;;5093888;28;20616;-32
2022/01/06 08:46:48;;;;;;;3.43;2.40;;;2.60;99.90;;;;;;5093900;28;20209;-31
2022/01/06 08:49:15;;;;;;;2.73;2.20;;;2.50;99.90;;;;;;5076691;28;20191;-32
2022/01/06 08:51:42;;;;;;;2.67;2.20;;;2.60;99.90;;;;;;5112139;28;20187;-32
2022/01/06 08:54:08;;;;;;;2.10;1.90;;;2.60;99.90;;;;;;5093438;28;20596;-31
2022/01/06 08:56:35;;;;;;;1.90;1.70;;;2.60;99.90;;;;;;5076922;28;20196;-31
2022/01/06 08:59:02;;;;;;;2.90;2.00;;;2.60;99.90;;;;;;5073983;28;20172;-31
2022/01/06 09:01:28;;;;;;;3.00;2.20;;;2.60;99.90;;;;;;5073537;28;20207;-31
2022/01/06 09:03:54;;;;;;;2.97;2.30;;;2.60;99.90;;;;;;5073380;28;20180;-31
2022/01/06 09:06:20;;;;;;;4.33;3.00;;;2.60;99.90;;;;;;5056462;28;20211;-31
2022/01/06 09:08:46;;;;;;;5.47;3.50;;;2.60;99.90;;;;;;5056102;28;20271;-32
2022/01/06 09:11:12;;;;;;;10.00;6.40;;;2.60;99.90;;;;;;5056548;28;20285;-33
2022/01/06 09:13:38;;;;;;;7.33;3.97;;;2.60;99.90;;;;;;5073171;28;20270;-31
2022/01/06 09:16:08;;;;;;;7.00;3.40;;;2.70;99.90;;;;;;5072986;28;20218;-32
2022/01/06 09:18:35;;;;;;;3.37;3.00;;;2.70;99.90;;;;;;5056269;28;20259;-31
2022/01/06 09:21:02;;;;;;;4.47;3.00;;;2.70;99.90;;;;;;5072794;28;20169;-31
2022/01/06 09:23:27;;;;;;;3.40;2.90;;;2.70;99.90;;;;;;5056195;28;20363;-32
2022/01/06 09:25:53;;;;;;;5.87;2.90;;;2.70;99.90;;;;;;5056311;28;20208;-32
2022/01/06 09:28:19;;;;;;;3.77;2.73;;;2.70;99.90;;;;;;5056246;28;20215;-31
2022/01/06 09:30:45;;;;;;;5.03;3.20;;;2.70;99.90;;;;;;5090062;28;20176;-31
2022/01/06 09:33:11;;;;;;;7.60;3.90;;;2.70;99.90;;;;;;5093372;28;20203;-31
2022/01/06 09:35:37;;;;;;;5.30;3.30;;;2.80;99.90;;;;;;5076546;28;20188;-32
2022/01/06 09:38:03;;;;;;;20.40;9.10;;;2.80;99.90;;;;;;5076028;28;20176;-31
2022/01/06 09:40:29;;;;;;;15.07;7.43;;;2.80;99.90;;;;;;5076182;28;20258;-32
2022/01/06 09:42:55;;;;;;;16.47;7.50;;;2.80;99.90;;;;;;5093043;28;20253;-32
2022/01/06 09:45:25;;;;;;;8.33;4.70;;;2.80;99.90;;;;;;5093055;28;20200;-31
2022/01/06 09:47:52;;;;;;;7.20;3.67;;;2.80;99.90;;;;;;5076034;28;20187;-32
2022/01/06 09:50:18;;;;;;;4.30;2.77;;;3.00;99.90;;;;;;5076659;28;20221;-31
2022/01/06 09:52:45;;;;;;;5.20;2.80;;;3.10;99.90;;;;;;5095135;28;20242;-31
2022/01/06 09:55:11;;;;;;;7.50;3.07;;;3.30;99.90;;;;;;5094247;28;20232;-31
2022/01/06 09:57:37;;;;;;;7.97;3.33;;;3.40;99.90;;;;;;5092873;28;20180;-31
2022/01/06 10:00:05;;;;;;;5.90;3.20;;;3.50;99.90;;;;;;5093101;28;20680;-32
2022/01/06 10:02:39;;;;;;;9.43;3.40;;;3.50;99.90;;;;;;5094093;28;20183;-33
2022/01/06 10:05:06;;;;;;;4.00;3.00;;;3.40;99.90;;;;;;5075812;28;20191;-31
2022/01/06 10:07:40;;;;;;;7.93;3.50;;;3.50;99.90;;;;;;5076143;28;20208;-32
2022/01/06 10:10:12;;;;;;;4.53;2.77;;;3.50;99.90;;;;;;5076166;28;20180;-32
2022/01/06 10:12:40;;;;;;;2.87;2.30;;;3.50;99.90;;;;;;5092967;28;20804;-31
2022/01/06 10:15:26;;;;;;;9.87;3.50;;;3.60;99.90;;;;;;5093130;28;20287;-31
2022/01/06 10:17:55;;;;;;;6.43;2.70;;;3.70;99.90;;;;;;5092966;28;20172;-32
2022/01/06 10:20:27;;;;;;;3.67;2.40;;;3.80;99.90;;;;;;5092474;28;20176;-32
2022/01/06 10:22:55;;;;;;;4.73;2.60;;;3.80;99.90;;;;;;5076003;28;20191;-31
2022/01/06 10:25:24;;;;;;;6.80;2.97;;;3.80;99.90;;;;;;5110880;28;20203;-31
2022/01/06 10:27:56;;;;;;;4.47;3.23;;;3.80;99.90;;;;;;5092454;28;20184;-32
2022/01/06 10:30:26;;;;;;;9.37;3.00;;;3.70;99.90;;;;;;5062132;28;20226;-32
2022/01/06 10:32:58;;;;;;;4.80;3.10;;;3.70;99.90;;;;;;5093110;28;20208;-31
2022/01/06 10:35:24;;;;;;;6.73;3.23;;;3.60;99.90;;;;;;5075843;28;20197;-32
2022/01/06 10:37:50;;;;;;;4.83;2.80;;;3.60;99.90;;;;;;5094089;28;20181;-32
2022/01/06 10:40:24;;;;;;;6.03;2.70;;;3.60;99.90;;;;;;5059103;28;20637;-32
2022/01/06 10:42:57;;;;;;;5.90;2.67;;;3.60;99.90;;;;;;5059165;28;20327;-32
2022/01/06 10:45:26;;;;;;;5.80;3.10;;;3.50;99.90;;;;;;5075926;28;20197;-32
2022/01/06 10:47:55;;;;;;;6.27;3.27;;;3.50;99.90;;;;;;5059141;28;20179;-30
2022/01/06 10:50:29;;;;;;;5.43;2.60;;;3.50;99.90;;;;;;5075724;28;20318;-32
2022/01/06 10:53:07;;;;;;;5.70;3.27;;;3.50;99.90;;;;;;5058824;28;20207;-32
2022/01/06 10:55:34;;;;;;;4.17;3.13;;;3.40;99.90;;;;;;5059223;28;20208;-30
2022/01/06 10:58:05;;;;;;;6.17;3.97;;;3.40;99.90;;;;;;5058679;28;20203;-31
2022/01/06 11:00:33;;;;;;;12.83;5.97;;;3.40;99.90;;;;;;5073577;28;20184;-31
2022/01/06 11:03:06;;;;;;;13.20;7.33;;;3.40;99.90;;;;;;5079134;28;20180;-31
2022/01/06 11:05:34;;;;;;;23.43;11.83;;;3.40;99.90;;;;;;5078522;28;20201;-32
2022/01/06 11:08:01;;;;;;;14.40;8.10;;;3.40;99.90;;;;;;5095526;28;20191;-32
2022/01/06 11:10:27;;;;;;;8.27;4.77;;;3.50;99.90;;;;;;5079175;28;20184;-31
2022/01/06 11:12:53;;;;;;;9.10;5.73;;;3.50;99.90;;;;;;5078893;28;20200;-31
2022/01/06 11:15:19;;;;;;;7.33;5.30;;;3.50;99.90;;;;;;5079306;28;20561;-31
2022/01/06 11:17:50;;;;;;;6.03;4.47;;;3.60;99.90;;;;;;5095517;28;20191;-32
2022/01/06 11:20:26;;;;;;;6.33;4.00;;;3.60;99.90;;;;;;5095142;28;20180;-31
2022/01/06 11:22:54;;;;;;;4.07;3.27;;;3.70;99.90;;;;;;5079045;28;20272;-32
2022/01/06 11:25:36;;;;;;;4.40;2.80;;;3.80;99.90;;;;;;5078328;28;20268;-31
2022/01/06 11:28:07;;;;;;;5.07;3.30;;;4.00;99.90;;;;;;5078830;28;20240;-31
2022/01/06 11:30:47;;;;;;;7.33;3.10;;;4.10;99.90;;;;;;5063031;28;20184;-31
2022/01/06 11:33:15;;;;;;;5.63;3.37;;;4.20;99.90;;;;;;5058024;28;20247;-31
2022/01/06 11:35:56;;;;;;;5.73;3.30;;;4.20;99.90;;;;;;5074755;28;20200;-31
2022/01/06 11:38:26;;;;;;;6.37;4.07;;;4.30;99.90;;;;;;5058227;28;20161;-31
2022/01/06 11:41:10;;;;;;;3.73;3.10;;;4.30;99.90;;;;;;5074653;28;20180;-32
2022/01/06 11:43:37;;;;;;;3.43;2.80;;;4.40;99.90;;;;;;5057628;28;20184;-31
2022/01/06 11:46:03;;;;;;;4.17;3.23;;;4.40;99.90;;;;;;5074422;28;20196;-33
2022/01/06 11:48:29;;;;;;;5.27;3.20;;;4.40;99.90;;;;;;5057456;28;20216;-31
2022/01/06 11:50:55;;;;;;;5.13;3.30;;;4.50;99.90;;;;;;5057867;28;20204;-32
2022/01/06 11:53:30;;;;;;;5.13;3.20;;;4.60;99.90;;;;;;5057509;28;20238;-31
2022/01/06 11:55:57;;;;;;;5.70;3.40;;;4.70;99.90;;;;;;5058227;28;20202;-31
2022/01/06 11:58:23;;;;;;;5.07;3.30;;;4.80;99.90;;;;;;5057498;28;20205;-32
2022/01/06 12:01:02;;;;;;;6.47;3.57;;;4.80;99.90;;;;;;5091932;28;20190;-32
2022/01/06 12:03:36;;;;;;;3.33;2.83;;;4.80;99.90;;;;;;5094755;28;20175;-31
2022/01/06 12:06:03;;;;;;;8.23;4.90;;;4.70;99.90;;;;;;5094312;28;20258;-32
2022/01/06 12:08:41;;;;;;;15.93;9.00;;;4.60;99.90;;;;;;5094731;28;20191;-32
2022/01/06 12:11:24;;;;;;;8.43;3.97;;;4.60;99.90;;;;;;5094395;28;20191;-31
2022/01/06 12:13:51;;;;;;;3.23;2.70;;;4.70;99.90;;;;;;5077587;28;20205;-31
2022/01/06 12:16:25;;;;;;;5.93;3.30;;;4.90;99.90;;;;;;5094245;28;20290;-32
2022/01/06 12:18:51;;;;;;;5.30;3.00;;;5.00;99.90;;;;;;5094330;28;20182;-32
2022/01/06 12:21:18;;;;;;;4.70;2.70;;;5.10;99.90;;;;;;5077661;28;20291;-31
2022/01/06 12:23:45;;;;;;;3.93;2.00;;;5.20;99.90;;;;;;5077060;28;20182;-31
2022/01/06 12:26:12;;;;;;;8.27;2.47;;;5.40;99.90;;;;;;5076969;28;20218;-31
2022/01/06 12:28:48;;;;;;;3.97;1.90;;;5.50;99.90;;;;;;5093887;28;20220;-31
2022/01/06 12:31:27;;;;;;;4.33;1.70;;;5.60;99.90;;;;;;5073312;28;20190;-32
2022/01/06 12:33:58;;;;;;;3.33;1.77;;;5.70;99.90;;;;;;5092209;28;20197;-31
2022/01/06 12:36:25;;;;;;;4.77;1.83;;;5.90;99.90;;;;;;5056994;28;20250;-33
2022/01/06 12:38:51;;;;;;;11.47;4.63;;;6.00;99.90;;;;;;5073538;28;20202;-31
2022/01/06 12:41:27;;;;;;;4.93;2.20;;;6.10;99.90;;;;;;5073750;28;20599;-31
2022/01/06 12:43:55;;;;;;;5.27;2.63;;;6.20;99.90;;;;;;5072863;28;20244;-31
2022/01/06 12:46:23;;;;;;;13.27;3.83;;;6.20;99.90;;;;;;5056850;28;20201;-32
2022/01/06 12:48:51;;;;;;;4.33;2.53;;;5.60;99.90;;;;;;5076408;28;20191;-33
2022/01/06 12:51:24;;;;;;;5.57;1.97;;;4.60;99.90;;;;;;5093254;28;20194;-32
2022/01/06 12:54:18;;;;;;;3.27;1.40;;;4.20;99.90;;;;;;5111099;28;20208;-31
2022/01/06 12:56:53;;;;;;;4.73;1.40;;;4.00;99.90;;;;;;5076655;28;20216;-31
2022/01/06 12:59:27;;;;;;;3.93;1.67;;;3.90;99.90;;;;;;5094533;28;20199;-31
2022/01/06 13:01:58;;;;;;;6.40;1.90;;;4.00;99.90;;;;;;5094065;28;20220;-30
2022/01/06 13:04:30;;;;;;;6.03;1.67;;;4.00;99.90;;;;;;5093523;28;20185;-31
2022/01/06 13:07:02;;;;;;;6.70;1.70;;;4.10;99.90;;;;;;5093827;28;20190;-32
2022/01/06 13:09:31;;;;;;;3.40;1.30;;;4.20;99.90;;;;;;5093053;28;20192;-32
2022/01/06 13:12:07;;;;;;;4.80;1.50;;;4.20;99.90;;;;;;5111064;28;20195;-32
2022/01/06 13:14:45;;;;;;;9.07;1.30;;;4.30;99.90;;;;;;5113676;28;20199;-33